sensor_id;sensor_type;location;lat;lon;timestamp;pressure;altitude;pressure_sealevel;temperature;humidity
19789;BME280;10054;59.332;18.244;2024-01-25T00:01:06;99067.42;;;0.80;100.00
19789;BME280;10054;59.332;18.244;2024-01-25T00:03:35;99082.54;;;0.81;100.00
19789;BME280;10054;59.332;18.244;2024-01-25T00:06:05;99080.33;;;0.82;100.00
19789;BME280;10054;59.332;18.244;2024-01-25T00:08:35;99089.80;;;0.83;100.00
19789;BME280;10054;59.332;18.244;2024-01-25T00:11:04;99092.25;;;0.86;100.00
19789;BME280;10054;59.332;18.244;2024-01-25T00:13:34;99104.77;;;0.86;100.00
19789;BME280;10054;59.332;18.244;2024-01-25T00:16:05;99110.34;;;0.87;100.00
19789;BME280;10054;59.332;18.244;2024-01-25T00:18:35;99124.17;;;0.88;100.00
19789;BME280;10054;59.332;18.244;2024-01-25T00:21:05;99131.57;;;0.87;100.00
19789;BME280;10054;59.332;18.244;2024-01-25T00:23:34;99137.15;;;0.88;100.00
19789;BME280;10054;59.332;18.244;2024-01-25T00:26:04;99147.61;;;0.86;100.00
19789;BME280;10054;59.332;18.244;2024-01-25T00:28:33;99154.55;;;0.86;100.00
19789;BME280;10054;59.332;18.244;2024-01-25T00:31:02;99168.45;;;0.85;100.00
19789;BME280;10054;59.332;18.244;2024-01-25T00:33:31;99176.23;;;0.85;100.00
19789;BME280;10054;59.332;18.244;2024-01-25T00:36:00;99192.19;;;0.86;100.00
19789;BME280;10054;59.332;18.244;2024-01-25T00:38:31;99192.58;;;0.87;100.00
19789;BME280;10054;59.332;18.244;2024-01-25T00:41:00;99207.31;;;0.86;100.00
19789;BME280;10054;59.332;18.244;2024-01-25T00:43:29;99218.61;;;0.85;100.00
19789;BME280;10054;59.332;18.244;2024-01-25T00:45:59;99224.19;;;0.86;100.00
19789;BME280;10054;59.332;18.244;2024-01-25T00:48:28;99232.36;;;0.87;100.00
19789;BME280;10054;59.332;18.244;2024-01-25T00:50:58;99240.15;;;0.87;100.00
19789;BME280;10054;59.332;18.244;2024-01-25T00:53:27;99250.08;;;0.88;100.00
19789;BME280;10054;59.332;18.244;2024-01-25T00:55:58;99258.70;;;0.88;100.00
19789;BME280;10054;59.332;18.244;2024-01-25T00:58:27;99265.59;;;0.89;100.00
19789;BME280;10054;59.332;18.244;2024-01-25T01:01:00;99273.90;;;0.87;100.00
19789;BME280;10054;59.332;18.244;2024-01-25T01:03:29;99273.90;;;0.87;100.00
19789;BME280;10054;59.332;18.244;2024-01-25T01:06:00;99292.39;;;0.90;100.00
19789;BME280;10054;59.332;18.244;2024-01-25T01:08:29;99296.74;;;0.89;100.00
19789;BME280;10054;59.332;18.244;2024-01-25T01:10:59;99308.48;;;0.88;100.00
19789;BME280;10054;59.332;18.244;2024-01-25T01:13:28;99321.08;;;0.87;100.00
19789;BME280;10054;59.332;18.244;2024-01-25T01:15:57;99326.28;;;0.87;100.00
19789;BME280;10054;59.332;18.244;2024-01-25T01:18:25;99331.08;;;0.86;100.00
19789;BME280;10054;59.332;18.244;2024-01-25T01:20:56;99329.33;;;0.86;100.00
19789;BME280;10054;59.332;18.244;2024-01-25T01:23:26;99330.17;;;0.87;100.00
19789;BME280;10054;59.332;18.244;2024-01-25T01:25:55;99345.36;;;0.86;100.00
19789;BME280;10054;59.332;18.244;2024-01-25T01:28:23;99353.08;;;0.87;100.00
19789;BME280;10054;59.332;18.244;2024-01-25T01:30:52;99363.47;;;0.87;100.00
19789;BME280;10054;59.332;18.244;2024-01-25T01:33:21;99368.20;;;0.88;100.00
19789;BME280;10054;59.332;18.244;2024-01-25T01:35:50;99376.45;;;0.87;100.00
19789;BME280;10054;59.332;18.244;2024-01-25T01:38:18;99382.48;;;0.88;100.00
19789;BME280;10054;59.332;18.244;2024-01-25T01:40:47;99390.66;;;0.89;100.00
19789;BME280;10054;59.332;18.244;2024-01-25T01:43:20;99389.75;;;0.90;100.00
19789;BME280;10054;59.332;18.244;2024-01-25T01:45:50;99399.81;;;0.87;100.00
19789;BME280;10054;59.332;18.244;2024-01-25T01:48:19;99405.84;;;0.88;100.00
19789;BME280;10054;59.332;18.244;2024-01-25T01:50:48;99417.47;;;0.89;100.00
19789;BME280;10054;59.332;18.244;2024-01-25T01:53:18;99418.31;;;0.90;100.00
19789;BME280;10054;59.332;18.244;2024-01-25T01:55:46;99426.55;;;0.89;100.00
19789;BME280;10054;59.332;18.244;2024-01-25T01:58:16;99435.19;;;0.90;100.00
19789;BME280;10054;59.332;18.244;2024-01-25T02:00:46;99444.27;;;0.90;100.00
19789;BME280;10054;59.332;18.244;2024-01-25T02:03:16;99448.62;;;0.89;100.00
19789;BME280;10054;59.332;18.244;2024-01-25T02:05:45;99461.66;;;0.88;100.00
19789;BME280;10054;59.332;18.244;2024-01-25T02:08:15;99460.37;;;0.88;100.00
19789;BME280;10054;59.332;18.244;2024-01-25T02:10:44;99465.23;;;0.85;100.00
19789;BME280;10054;59.332;18.244;2024-01-25T02:13:12;99465.63;;;0.86;100.00
19789;BME280;10054;59.332;18.244;2024-01-25T02:15:41;99475.55;;;0.87;100.00
19789;BME280;10054;59.332;18.244;2024-01-25T02:18:10;99470.23;;;0.90;100.00
19789;BME280;10054;59.332;18.244;2024-01-25T02:20:39;99478.35;;;0.92;100.00
19789;BME280;10054;59.332;18.244;2024-01-25T02:23:08;99490.09;;;0.91;100.00
19789;BME280;10054;59.332;18.244;2024-01-25T02:25:37;99491.52;;;0.88;100.00
19789;BME280;10054;59.332;18.244;2024-01-25T02:28:06;99496.33;;;0.87;100.00
19789;BME280;10054;59.332;18.244;2024-01-25T02:30:35;99505.02;;;0.86;100.00
19789;BME280;10054;59.332;18.244;2024-01-25T02:33:04;99512.15;;;0.81;100.00
19789;BME280;10054;59.332;18.244;2024-01-25T02:35:32;99528.23;;;0.79;100.00
19789;BME280;10054;59.332;18.244;2024-01-25T02:38:01;99534.73;;;0.79;100.00
19789;BME280;10054;59.332;18.244;2024-01-25T02:40:30;99534.79;;;0.77;100.00
19789;BME280;10054;59.332;18.244;2024-01-25T02:42:59;99537.84;;;0.77;100.00
19789;BME280;10054;59.332;18.244;2024-01-25T02:45:27;99548.28;;;0.75;100.00
19789;BME280;10054;59.332;18.244;2024-01-25T02:47:56;99550.42;;;0.76;100.00
19789;BME280;10054;59.332;18.244;2024-01-25T02:50:25;99556.91;;;0.76;100.00
19789;BME280;10054;59.332;18.244;2024-01-25T02:52:54;99567.30;;;0.76;100.00
19789;BME280;10054;59.332;18.244;2024-01-25T02:55:23;99570.34;;;0.75;100.00
19789;BME280;10054;59.332;18.244;2024-01-25T02:57:52;99582.17;;;0.72;100.00
19789;BME280;10054;59.332;18.244;2024-01-25T03:00:22;99587.43;;;0.71;100.00
19789;BME280;10054;59.332;18.244;2024-01-25T03:02:51;99594.82;;;0.70;100.00
19789;BME280;10054;59.332;18.244;2024-01-25T03:05:19;99601.77;;;0.69;100.00
19789;BME280;10054;59.332;18.244;2024-01-25T03:07:48;99613.89;;;0.69;100.00
19789;BME280;10054;59.332;18.244;2024-01-25T03:10:17;99622.19;;;0.67;100.00
19789;BME280;10054;59.332;18.244;2024-01-25T03:12:46;99622.64;;;0.66;100.00
19789;BME280;10054;59.332;18.244;2024-01-25T03:15:15;99635.34;;;0.62;100.00
19789;BME280;10054;59.332;18.244;2024-01-25T03:17:44;99644.54;;;0.59;100.00
19789;BME280;10054;59.332;18.244;2024-01-25T03:20:13;99656.27;;;0.57;100.00
19789;BME280;10054;59.332;18.244;2024-01-25T03:22:43;99654.64;;;0.55;100.00
19789;BME280;10054;59.332;18.244;2024-01-25T03:25:12;99668.97;;;0.53;100.00
19789;BME280;10054;59.332;18.244;2024-01-25T03:27:41;99671.22;;;0.51;100.00
19789;BME280;10054;59.332;18.244;2024-01-25T03:30:10;99669.88;;;0.52;100.00
19789;BME280;10054;59.332;18.244;2024-01-25T03:32:39;99679.45;;;0.50;100.00
19789;BME280;10054;59.332;18.244;2024-01-25T03:35:08;99688.94;;;0.51;100.00
19789;BME280;10054;59.332;18.244;2024-01-25T03:37:37;99695.92;;;0.49;100.00
19789;BME280;10054;59.332;18.244;2024-01-25T03:40:07;99706.31;;;0.49;100.00
19789;BME280;10054;59.332;18.244;2024-01-25T03:42:35;99707.66;;;0.48;100.00
19789;BME280;10054;59.332;18.244;2024-01-25T03:45:05;99723.57;;;0.50;100.00
19789;BME280;10054;59.332;18.244;2024-01-25T03:47:34;99727.80;;;0.53;100.00
19789;BME280;10054;59.332;18.244;2024-01-25T03:50:03;99739.98;;;0.51;100.00
19789;BME280;10054;59.332;18.244;2024-01-25T03:52:32;99740.55;;;0.47;100.00
19789;BME280;10054;59.332;18.244;2024-01-25T03:55:01;99752.62;;;0.48;100.00
19789;BME280;10054;59.332;18.244;2024-01-25T03:57:30;99749.63;;;0.47;100.00
19789;BME280;10054;59.332;18.244;2024-01-25T03:59:59;99765.41;;;0.41;100.00
19789;BME280;10054;59.332;18.244;2024-01-25T04:02:29;99780.18;;;0.39;100.00
19789;BME280;10054;59.332;18.244;2024-01-25T04:04:58;99772.95;;;0.36;100.00
19789;BME280;10054;59.332;18.244;2024-01-25T04:07:27;99775.15;;;0.35;100.00
19789;BME280;10054;59.332;18.244;2024-01-25T04:09:56;99780.28;;;0.36;100.00
19789;BME280;10054;59.332;18.244;2024-01-25T04:12:25;99792.41;;;0.36;100.00
19789;BME280;10054;59.332;18.244;2024-01-25T04:14:54;99793.70;;;0.36;100.00
19789;BME280;10054;59.332;18.244;2024-01-25T04:17:25;99801.48;;;0.36;100.00
19789;BME280;10054;59.332;18.244;2024-01-25T04:19:54;99801.09;;;0.35;100.00
19789;BME280;10054;59.332;18.244;2024-01-25T04:22:22;99802.73;;;0.37;100.00
19789;BME280;10054;59.332;18.244;2024-01-25T04:24:51;99812.66;;;0.38;100.00
19789;BME280;10054;59.332;18.244;2024-01-25T04:27:20;99824.73;;;0.39;100.00
19789;BME280;10054;59.332;18.244;2024-01-25T04:29:49;99831.62;;;0.40;100.00
19789;BME280;10054;59.332;18.244;2024-01-25T04:32:17;99831.62;;;0.40;100.00
19789;BME280;10054;59.332;18.244;2024-01-25T04:34:46;99839.80;;;0.41;100.00
19789;BME280;10054;59.332;18.244;2024-01-25T04:37:15;99843.30;;;0.40;100.00
19789;BME280;10054;59.332;18.244;2024-01-25T04:39:44;99853.22;;;0.40;100.00
19789;BME280;10054;59.332;18.244;2024-01-25T04:42:13;99866.19;;;0.40;100.00
19789;BME280;10054;59.332;18.244;2024-01-25T04:44:41;99861.00;;;0.40;100.00
19789;BME280;10054;59.332;18.244;2024-01-25T04:47:10;99880.97;;;0.38;100.00
19789;BME280;10054;59.332;18.244;2024-01-25T04:49:40;99887.00;;;0.39;100.00
19789;BME280;10054;59.332;18.244;2024-01-25T04:52:09;99888.70;;;0.40;100.00
19789;BME280;10054;59.332;18.244;2024-01-25T04:54:40;99901.72;;;0.38;100.00
19789;BME280;10054;59.332;18.244;2024-01-25T04:57:09;99910.80;;;0.38;100.00
19789;BME280;10054;59.332;18.244;2024-01-25T04:59:38;99919.98;;;0.35;100.00
19789;BME280;10054;59.332;18.244;2024-01-25T05:02:07;99916.63;;;0.31;100.00
19789;BME280;10054;59.332;18.244;2024-01-25T05:04:37;99925.22;;;0.33;100.00
19789;BME280;10054;59.332;18.244;2024-01-25T05:07:06;99935.55;;;0.35;100.00
19789;BME280;10054;59.332;18.244;2024-01-25T05:09:35;99935.89;;;0.38;100.00
19789;BME280;10054;59.332;18.244;2024-01-25T05:12:04;99945.77;;;0.40;100.00
19789;BME280;10054;59.332;18.244;2024-01-25T05:14:33;99951.41;;;0.39;100.00
19789;BME280;10054;59.332;18.244;2024-01-25T05:17:01;99957.50;;;0.38;100.00
19789;BME280;10054;59.332;18.244;2024-01-25T05:19:31;99961.04;;;0.36;100.00
19789;BME280;10054;59.332;18.244;2024-01-25T05:22:00;99963.23;;;0.35;100.00
19789;BME280;10054;59.332;18.244;2024-01-25T05:24:33;99975.75;;;0.35;100.00
19789;BME280;10054;59.332;18.244;2024-01-25T05:27:03;99981.89;;;0.32;100.00
19789;BME280;10054;59.332;18.244;2024-01-25T05:29:32;99972.76;;;0.34;100.00
19789;BME280;10054;59.332;18.244;2024-01-25T05:32:01;99988.77;;;0.33;100.00
19789;BME280;10054;59.332;18.244;2024-01-25T05:34:30;99988.82;;;0.32;100.00
19789;BME280;10054;59.332;18.244;2024-01-25T05:37:00;99995.66;;;0.35;100.00
19789;BME280;10054;59.332;18.244;2024-01-25T05:39:29;99993.42;;;0.37;100.00
19789;BME280;10054;59.332;18.244;2024-01-25T05:41:57;100005.98;;;0.36;100.00
19789;BME280;10054;59.332;18.244;2024-01-25T05:44:26;100021.11;;;0.37;100.00
19789;BME280;10054;59.332;18.244;2024-01-25T05:46:55;100021.42;;;0.41;100.00
19789;BME280;10054;59.332;18.244;2024-01-25T05:49:25;100024.45;;;0.40;100.00
19789;BME280;10054;59.332;18.244;2024-01-25T05:51:56;100024.51;;;0.39;100.00
19789;BME280;10054;59.332;18.244;2024-01-25T05:54:25;100035.38;;;0.37;100.00
19789;BME280;10054;59.332;18.244;2024-01-25T05:56:53;100041.06;;;0.35;100.00
19789;BME280;10054;59.332;18.244;2024-01-25T05:59:24;100051.48;;;0.33;100.00
19789;BME280;10054;59.332;18.244;2024-01-25T06:01:52;100049.42;;;0.29;100.00
19789;BME280;10054;59.332;18.244;2024-01-25T06:04:21;100055.06;;;0.29;100.00
19789;BME280;10054;59.332;18.244;2024-01-25T06:06:50;100055.47;;;0.30;100.00
19789;BME280;10054;59.332;18.244;2024-01-25T06:09:18;100074.92;;;0.30;100.00
19789;BME280;10054;59.332;18.244;2024-01-25T06:11:47;100084.45;;;0.29;100.00
19789;BME280;10054;59.332;18.244;2024-01-25T06:14:17;100097.06;;;0.27;100.00
19789;BME280;10054;59.332;18.244;2024-01-25T06:16:46;100093.17;;;0.27;100.00
19789;BME280;10054;59.332;18.244;2024-01-25T06:19:15;100110.48;;;0.26;100.00
19789;BME280;10054;59.332;18.244;2024-01-25T06:21:44;100108.06;;;0.20;100.00
19789;BME280;10054;59.332;18.244;2024-01-25T06:24:13;100118.39;;;0.22;100.00
19789;BME280;10054;59.332;18.244;2024-01-25T06:26:42;100125.81;;;0.19;100.00
19789;BME280;10054;59.332;18.244;2024-01-25T06:29:10;100133.14;;;0.20;100.00
19789;BME280;10054;59.332;18.244;2024-01-25T06:31:43;100139.19;;;0.20;100.00
19789;BME280;10054;59.332;18.244;2024-01-25T06:34:12;100149.52;;;0.22;100.00
19789;BME280;10054;59.332;18.244;2024-01-25T06:36:41;100154.70;;;0.22;100.00
19789;BME280;10054;59.332;18.244;2024-01-25T06:39:09;100162.97;;;0.20;100.00
19789;BME280;10054;59.332;18.244;2024-01-25T06:41:38;100169.98;;;0.16;100.00
19789;BME280;10054;59.332;18.244;2024-01-25T06:44:08;100167.03;;;0.14;100.00
19789;BME280;10054;59.332;18.244;2024-01-25T06:46:37;100180.93;;;0.11;100.00
19789;BME280;10054;59.332;18.244;2024-01-25T06:49:06;100178.83;;;0.09;100.00
19789;BME280;10054;59.332;18.244;2024-01-25T06:51:35;100188.34;;;0.09;100.00
19789;BME280;10054;59.332;18.244;2024-01-25T06:54:04;100191.88;;;0.06;100.00
19789;BME280;10054;59.332;18.244;2024-01-25T06:56:34;100201.03;;;0.03;100.00
19789;BME280;10054;59.332;18.244;2024-01-25T06:59:03;100214.03;;;0.02;100.00
19789;BME280;10054;59.332;18.244;2024-01-25T07:01:32;100214.11;;;0.00;100.00
19789;BME280;10054;59.332;18.244;2024-01-25T07:04:00;100218.44;;;-0.01;100.00
19789;BME280;10054;59.332;18.244;2024-01-25T07:06:30;100217.59;;;-0.01;100.00
19789;BME280;10054;59.332;18.244;2024-01-25T07:08:59;100227.89;;;0.00;100.00
19789;BME280;10054;59.332;18.244;2024-01-25T07:11:28;100239.63;;;-0.01;100.00
19789;BME280;10054;59.332;18.244;2024-01-25T07:13:57;100241.78;;;-0.01;100.00
19789;BME280;10054;59.332;18.244;2024-01-25T07:16:27;100253.89;;;-0.01;100.00
19789;BME280;10054;59.332;18.244;2024-01-25T07:18:57;100260.82;;;-0.02;100.00
19789;BME280;10054;59.332;18.244;2024-01-25T07:21:26;100271.59;;;-0.01;100.00
19789;BME280;10054;59.332;18.244;2024-01-25T07:23:55;100273.82;;;-0.03;100.00
19789;BME280;10054;59.332;18.244;2024-01-25T07:26:24;100280.34;;;-0.05;100.00
19789;BME280;10054;59.332;18.244;2024-01-25T07:28:54;100286.42;;;-0.06;100.00
19789;BME280;10054;59.332;18.244;2024-01-25T07:31:27;100291.16;;;-0.05;100.00
19789;BME280;10054;59.332;18.244;2024-01-25T07:33:56;100300.67;;;-0.06;100.00
19789;BME280;10054;59.332;18.244;2024-01-25T07:36:26;100306.27;;;-0.05;100.00
19789;BME280;10054;59.332;18.244;2024-01-25T07:38:55;100316.61;;;-0.03;100.00
19789;BME280;10054;59.332;18.244;2024-01-25T07:41:26;100324.39;;;-0.03;100.00
19789;BME280;10054;59.332;18.244;2024-01-25T07:43:56;100326.98;;;-0.03;100.00
19789;BME280;10054;59.332;18.244;2024-01-25T07:46:25;100336.53;;;-0.05;100.00
19789;BME280;10054;59.332;18.244;2024-01-25T07:48:53;100337.09;;;-0.10;100.00
19789;BME280;10054;59.332;18.244;2024-01-25T07:51:22;100349.67;;;-0.13;100.00
19789;BME280;10054;59.332;18.244;2024-01-25T07:53:53;100349.74;;;-0.16;100.00
19789;BME280;10054;59.332;18.244;2024-01-25T07:56:22;100355.71;;;-0.12;100.00
19789;BME280;10054;59.332;18.244;2024-01-25T07:58:50;100357.08;;;-0.15;100.00
19789;BME280;10054;59.332;18.244;2024-01-25T08:01:20;100363.59;;;-0.17;100.00
19789;BME280;10054;59.332;18.244;2024-01-25T08:03:48;100370.48;;;-0.16;100.00
19789;BME280;10054;59.332;18.244;2024-01-25T08:06:17;100386.55;;;-0.19;100.00
19789;BME280;10054;59.332;18.244;2024-01-25T08:08:46;100394.33;;;-0.19;100.00
19789;BME280;10054;59.332;18.244;2024-01-25T08:11:15;100400.40;;;-0.20;100.00
19789;BME280;10054;59.332;18.244;2024-01-25T08:13:45;100409.44;;;-0.19;100.00
19789;BME280;10054;59.332;18.244;2024-01-25T08:16:15;100401.66;;;-0.19;100.00
19789;BME280;10054;59.332;18.244;2024-01-25T08:18:48;100410.23;;;-0.15;100.00
19789;BME280;10054;59.332;18.244;2024-01-25T08:21:16;100419.33;;;-0.17;100.00
19789;BME280;10054;59.332;18.244;2024-01-25T08:23:45;100424.96;;;-0.17;100.00
19789;BME280;10054;59.332;18.244;2024-01-25T08:26:15;100438.33;;;-0.16;100.00
19789;BME280;10054;59.332;18.244;2024-01-25T08:28:43;100447.78;;;-0.14;100.00
19789;BME280;10054;59.332;18.244;2024-01-25T08:31:12;100451.61;;;-0.11;100.00
19789;BME280;10054;59.332;18.244;2024-01-25T08:33:41;100463.66;;;-0.08;100.00
19789;BME280;10054;59.332;18.244;2024-01-25T08:36:11;100463.23;;;-0.09;100.00
19789;BME280;10054;59.332;18.244;2024-01-25T08:38:40;100474.84;;;-0.06;100.00
19789;BME280;10054;59.332;18.244;2024-01-25T08:41:08;100486.10;;;-0.07;100.00
19789;BME280;10054;59.332;18.244;2024-01-25T08:43:38;100486.52;;;-0.06;100.00
19789;BME280;10054;59.332;18.244;2024-01-25T08:46:08;100494.73;;;-0.07;100.00
19789;BME280;10054;59.332;18.244;2024-01-25T08:48:36;100496.44;;;-0.06;100.00
19789;BME280;10054;59.332;18.244;2024-01-25T08:51:05;100501.16;;;-0.04;100.00
19789;BME280;10054;59.332;18.244;2024-01-25T08:53:34;100502.42;;;-0.02;100.00
19789;BME280;10054;59.332;18.244;2024-01-25T08:56:02;100502.04;;;-0.05;100.00
19789;BME280;10054;59.332;18.244;2024-01-25T08:58:32;100499.95;;;-0.08;100.00
19789;BME280;10054;59.332;18.244;2024-01-25T09:01:00;100516.84;;;-0.10;100.00
19789;BME280;10054;59.332;18.244;2024-01-25T09:03:29;100514.63;;;-0.07;100.00
19789;BME280;10054;59.332;18.244;2024-01-25T09:05:58;100515.51;;;-0.08;100.00
19789;BME280;10054;59.332;18.244;2024-01-25T09:08:28;100524.96;;;-0.06;100.00
19789;BME280;10054;59.332;18.244;2024-01-25T09:10:59;100535.27;;;-0.03;100.00
19789;BME280;10054;59.332;18.244;2024-01-25T09:13:27;100535.69;;;-0.02;100.00
19789;BME280;10054;59.332;18.244;2024-01-25T09:15:56;100540.42;;;-0.01;100.00
19789;BME280;10054;59.332;18.244;2024-01-25T09:18:25;100541.73;;;-0.01;100.00
19789;BME280;10054;59.332;18.244;2024-01-25T09:20:53;100546.97;;;-0.04;100.00
19789;BME280;10054;59.332;18.244;2024-01-25T09:23:22;100550.42;;;-0.04;100.00
19789;BME280;10054;59.332;18.244;2024-01-25T09:25:51;100554.75;;;-0.04;100.00
19789;BME280;10054;59.332;18.244;2024-01-25T09:28:19;100561.17;;;-0.01;100.00
19789;BME280;10054;59.332;18.244;2024-01-25T09:30:48;100565.41;;;0.02;100.00
19789;BME280;10054;59.332;18.244;2024-01-25T09:33:17;100571.42;;;0.04;100.00
19789;BME280;10054;59.332;18.244;2024-01-25T09:35:46;100574.55;;;0.00;100.00
19789;BME280;10054;59.332;18.244;2024-01-25T09:38:15;100588.02;;;-0.04;100.00
19789;BME280;10054;59.332;18.244;2024-01-25T09:40:44;100583.69;;;-0.03;100.00
19789;BME280;10054;59.332;18.244;2024-01-25T09:43:14;100584.60;;;-0.06;100.00
19789;BME280;10054;59.332;18.244;2024-01-25T09:45:43;100595.56;;;-0.14;100.00
19789;BME280;10054;59.332;18.244;2024-01-25T09:48:13;100606.76;;;-0.12;100.00
19789;BME280;10054;59.332;18.244;2024-01-25T09:50:42;100614.45;;;-0.07;100.00
19789;BME280;10054;59.332;18.244;2024-01-25T09:53:15;100611.83;;;-0.06;100.00
19789;BME280;10054;59.332;18.244;2024-01-25T09:55:45;100614.78;;;-0.02;100.00
19789;BME280;10054;59.332;18.244;2024-01-25T09:58:15;100619.08;;;-0.01;100.00
19789;BME280;10054;59.332;18.244;2024-01-25T10:00:44;100624.70;;;-0.01;100.00
19789;BME280;10054;59.332;18.244;2024-01-25T10:03:12;100629.83;;;0.00;100.00
19789;BME280;10054;59.332;18.244;2024-01-25T10:05:41;100633.84;;;-0.04;100.00
19789;BME280;10054;59.332;18.244;2024-01-25T10:08:13;100637.77;;;-0.06;100.00
19789;BME280;10054;59.332;18.244;2024-01-25T10:10:42;100642.45;;;-0.02;100.00
19789;BME280;10054;59.332;18.244;2024-01-25T10:13:13;100643.83;;;-0.07;100.00
19789;BME280;10054;59.332;18.244;2024-01-25T10:15:42;100645.95;;;-0.05;100.00
19789;BME280;10054;59.332;18.244;2024-01-25T10:18:13;100650.31;;;-0.07;100.00
19789;BME280;10054;59.332;18.244;2024-01-25T10:20:45;100654.20;;;-0.07;100.00
19789;BME280;10054;59.332;18.244;2024-01-25T10:23:13;100655.88;;;-0.04;100.00
19789;BME280;10054;59.332;18.244;2024-01-25T10:25:43;100664.95;;;-0.04;100.00
19789;BME280;10054;59.332;18.244;2024-01-25T10:28:12;100670.17;;;-0.06;100.00
19789;BME280;10054;59.332;18.244;2024-01-25T10:30:42;100677.45;;;-0.02;100.00
19789;BME280;10054;59.332;18.244;2024-01-25T10:33:12;100679.08;;;0.02;100.00
19789;BME280;10054;59.332;18.244;2024-01-25T10:35:42;100686.83;;;0.04;100.00
19789;BME280;10054;59.332;18.244;2024-01-25T10:38:12;100689.84;;;0.05;100.00
19789;BME280;10054;59.332;18.244;2024-01-25T10:40:41;100711.91;;;0.03;100.00
19789;BME280;10054;59.332;18.244;2024-01-25T10:43:11;100702.95;;;-0.02;100.00
19789;BME280;10054;59.332;18.244;2024-01-25T10:45:39;100705.95;;;-0.01;100.00
19789;BME280;10054;59.332;18.244;2024-01-25T10:48:09;100713.73;;;-0.01;100.00
19789;BME280;10054;59.332;18.244;2024-01-25T10:50:37;100709.84;;;-0.01;100.00
19789;BME280;10054;59.332;18.244;2024-01-25T10:53:08;100726.31;;;-0.03;100.00
19789;BME280;10054;59.332;18.244;2024-01-25T10:55:38;100732.82;;;-0.05;100.00
19789;BME280;10054;59.332;18.244;2024-01-25T10:58:08;100736.71;;;-0.05;100.00
19789;BME280;10054;59.332;18.244;2024-01-25T11:00:36;100741.45;;;-0.04;100.00
19789;BME280;10054;59.332;18.244;2024-01-25T11:03:06;100761.77;;;-0.04;100.00
19789;BME280;10054;59.332;18.244;2024-01-25T11:05:35;100758.31;;;-0.04;100.00
19789;BME280;10054;59.332;18.244;2024-01-25T11:08:05;100760.52;;;-0.07;100.00
19789;BME280;10054;59.332;18.244;2024-01-25T11:10:36;100760.52;;;-0.07;100.00
19789;BME280;10054;59.332;18.244;2024-01-25T11:13:05;100761.01;;;-0.10;100.00
19789;BME280;10054;59.332;18.244;2024-01-25T11:15:35;100769.33;;;-0.17;100.00
19789;BME280;10054;59.332;18.244;2024-01-25T11:18:07;100769.79;;;-0.19;100.00
19789;BME280;10054;59.332;18.244;2024-01-25T11:20:37;100772.84;;;-0.21;100.00
19789;BME280;10054;59.332;18.244;2024-01-25T11:23:06;100780.67;;;-0.24;100.00
19789;BME280;10054;59.332;18.244;2024-01-25T11:25:38;100780.66;;;-0.22;100.00
19789;BME280;10054;59.332;18.244;2024-01-25T11:28:07;100787.55;;;-0.21;100.00
19789;BME280;10054;59.332;18.244;2024-01-25T11:30:36;100790.16;;;-0.23;100.00
19789;BME280;10054;59.332;18.244;2024-01-25T11:33:11;100795.30;;;-0.20;100.00
19789;BME280;10054;59.332;18.244;2024-01-25T11:35:36;100796.11;;;-0.16;100.00
19789;BME280;10054;59.332;18.244;2024-01-25T11:38:05;100804.28;;;-0.14;100.00
19789;BME280;10054;59.332;18.244;2024-01-25T11:40:34;100809.48;;;-0.15;100.00
19789;BME280;10054;59.332;18.244;2024-01-25T11:43:04;100818.52;;;-0.12;100.00
19789;BME280;10054;59.332;18.244;2024-01-25T11:45:37;100818.12;;;-0.15;100.00
19789;BME280;10054;59.332;18.244;2024-01-25T11:48:07;100818.09;;;-0.13;100.00
19789;BME280;10054;59.332;18.244;2024-01-25T11:50:36;100824.17;;;-0.14;100.00
19789;BME280;10054;59.332;18.244;2024-01-25T11:53:05;100823.28;;;-0.13;100.00
19789;BME280;10054;59.332;18.244;2024-01-25T11:55:34;100832.43;;;-0.18;100.00
19789;BME280;10054;59.332;18.244;2024-01-25T11:58:03;100839.84;;;-0.22;100.00
19789;BME280;10054;59.332;18.244;2024-01-25T12:00:32;100842.45;;;-0.23;100.00
19789;BME280;10054;59.332;18.244;2024-01-25T12:03:01;100848.54;;;-0.26;100.00
19789;BME280;10054;59.332;18.244;2024-01-25T12:05:30;100857.17;;;-0.25;100.00
19789;BME280;10054;59.332;18.244;2024-01-25T12:08:00;100864.09;;;-0.26;100.00
19789;BME280;10054;59.332;18.244;2024-01-25T12:10:31;100872.28;;;-0.25;100.00
19789;BME280;10054;59.332;18.244;2024-01-25T12:13:00;100869.25;;;-0.24;100.00
19789;BME280;10054;59.332;18.244;2024-01-25T12:15:31;100866.22;;;-0.24;100.00
19789;BME280;10054;59.332;18.244;2024-01-25T12:17:59;100877.02;;;-0.23;100.00
19789;BME280;10054;59.332;18.244;2024-01-25T12:20:29;100881.42;;;-0.29;100.00
19789;BME280;10054;59.332;18.244;2024-01-25T12:22:59;100889.24;;;-0.32;100.00
19789;BME280;10054;59.332;18.244;2024-01-25T12:25:28;100893.53;;;-0.30;100.00
19789;BME280;10054;59.332;18.244;2024-01-25T12:27:57;100906.92;;;-0.30;100.00
19789;BME280;10054;59.332;18.244;2024-01-25T12:30:27;100901.41;;;-0.38;100.00
19789;BME280;10054;59.332;18.244;2024-01-25T12:32:56;100908.77;;;-0.39;100.00
19789;BME280;10054;59.332;18.244;2024-01-25T12:35:25;100909.22;;;-0.41;100.00
19789;BME280;10054;59.332;18.244;2024-01-25T12:37:53;100919.23;;;-0.46;100.00
19789;BME280;10054;59.332;18.244;2024-01-25T12:40:22;100917.95;;;-0.48;100.00
19789;BME280;10054;59.332;18.244;2024-01-25T12:42:51;100930.03;;;-0.47;100.00
19789;BME280;10054;59.332;18.244;2024-01-25T12:45:20;100927.02;;;-0.48;100.00
19789;BME280;10054;59.332;18.244;2024-01-25T12:47:48;100938.70;;;-0.49;100.00
19789;BME280;10054;59.332;18.244;2024-01-25T12:50:17;100947.77;;;-0.49;100.00